This is the latest recevied weather packets stored in our database for station/object WX5RP. If no packets are shown the sender has not sent any weather packets the latest 10 day(s).
| Time | Temp. | Humidity | Pressure | Rain* | Wind** | Luminosity | Snow |
|---|---|---|---|---|---|---|---|
| 1787379017 | 18.89° C | 61% | 1019.7 hPa | 0 mm | - | 0 W/m² | - |
| 1787378417 | 19.44° C | 55% | 1019.9 hPa | 0 mm | - | 0 W/m² | - |
| 1787377817 | 19.44° C | 56% | 1020 hPa | 0 mm | - | 0 W/m² | - |
| 1787377217 | 20.56° C | 54% | 1019.8 hPa | 0 mm | - | 0 W/m² | - |
| 1787376617 | 20.56° C | 52% | 1019.8 hPa | 0 mm | - | 0 W/m² | - |
| 1787376017 | 20° C | 51% | 1019.5 hPa | 0 mm | - | 0 W/m² | - |
| 1787375417 | 20.56° C | 52% | 1020 hPa | 0 mm | - | 0 W/m² | - |
| 1787374817 | 21.67° C | 46% | 1020 hPa | 0 mm | - | 0 W/m² | - |
| 1787374217 | 21.67° C | 43% | 1019.8 hPa | 0 mm | - | 0 W/m² | - |
| 1787373617 | 21.11° C | 43% | 1019.6 hPa | 0 mm | - | 0 W/m² | - |
| 1787373017 | 21.11° C | 46% | 1019.4 hPa | 0 mm | - | 0 W/m² | - |
| 1787372416 | 20.56° C | 48% | 1019.3 hPa | 0 mm | - | 0 W/m² | - |
| 1787371817 | 21.11° C | 53% | 1020.4 hPa | 0 mm | - | 0 W/m² | - |
| 1787371218 | 21.11° C | 46% | 1020 hPa | 0 mm | - | 0 W/m² | - |
| 1787370616 | 21.67° C | 46% | 1020 hPa | 0 mm | - | 0 W/m² | - |
| 1787370017 | 21.67° C | 43% | 1019.3 hPa | 0 mm | - | 0 W/m² | - |
| 1787369418 | 22.22° C | 45% | 1019.4 hPa | 0 mm | - | 0 W/m² | - |
| 1787368819 | 21.67° C | 43% | 1019.2 hPa | 0 mm | - | 0 W/m² | - |
| 1787368221 | 22.78° C | 49% | 1019.9 hPa | 0 mm | - | 0 W/m² | - |
| 1787367622 | 23.89° C | 46% | 1019.9 hPa | 0 mm | - | 0 W/m² | - |
| 1787367016 | 23.89° C | 36% | 1019.2 hPa | 0 mm | - | 5 W/m² | - |
| 1787366416 | 24.44° C | 34% | 1019.1 hPa | 0 mm | - | 5 W/m² | - |
| 1787365816 | 25° C | 35% | 1018.9 hPa | 0 mm | - | 9 W/m² | - |
| 1787365216 | 25.56° C | 34% | 1018.3 hPa | 0 mm | - | 10 W/m² | - |
| 1787364617 | 26.11° C | 35% | 1020.1 hPa | 0 mm | - | 19 W/m² | - |
* Rain latest hour (hover to see other rain measurements)
** Current wind speed in m/s (hover to see current wind gust speed)